createdAt,value
2023-03-18T00:03:47.889Z,99632.38
2023-03-18T00:08:46.238Z,99630.06
2023-03-18T00:13:42.957Z,99632.50
2023-03-18T00:18:40.406Z,99637.59
2023-03-18T00:23:37.131Z,99642.41
2023-03-18T00:28:33.542Z,99649.19
2023-03-18T00:33:30.659Z,99645.00
2023-03-18T00:38:27.094Z,99645.13
2023-03-18T00:43:29.258Z,99650.97
2023-03-18T00:48:26.369Z,99656.81
2023-03-18T00:53:25.076Z,99646.88
2023-03-18T00:58:21.527Z,99649.81
2023-03-18T01:03:18.289Z,99654.66
2023-03-18T01:08:14.636Z,99651.41
2023-03-18T01:13:11.044Z,99647.22
2023-03-18T01:18:08.695Z,99651.94
2023-03-18T01:23:08.760Z,99638.72
2023-03-18T01:28:05.470Z,99637.41
2023-03-18T01:33:04.711Z,99637.31
2023-03-18T01:38:02.565Z,99649.47
2023-03-18T01:43:13.236Z,99634.72
2023-03-18T01:48:15.419Z,99629.16
2023-03-18T01:53:15.496Z,99641.66
2023-03-18T01:58:18.541Z,99627.63
2023-03-18T02:03:15.434Z,99631.50
2023-03-18T02:08:11.911Z,99645.00
2023-03-18T02:13:10.548Z,99648.88
2023-03-18T02:18:19.404Z,99651.81
2023-03-18T02:23:31.816Z,99649.69
2023-03-18T02:28:31.354Z,99643.72
2023-03-18T02:33:34.183Z,99645.78
2023-03-18T02:38:30.543Z,99657.50
2023-03-18T02:43:28.512Z,99652.53
2023-03-18T02:48:33.363Z,99664.81
2023-03-18T02:53:30.876Z,99655.94
2023-03-18T02:58:27.673Z,99664.16
2023-03-18T03:03:26.537Z,99666.28
2023-03-18T03:08:23.154Z,99679.88
2023-03-18T03:13:22.145Z,99679.16
2023-03-18T03:18:18.560Z,99675.44
2023-03-18T03:23:16.694Z,99671.53
2023-03-18T03:28:14.313Z,99672.75
2023-03-18T03:33:11.538Z,99676.53
2023-03-18T03:38:09.351Z,99679.56
2023-03-18T03:43:06.637Z,99684.03
2023-03-18T03:48:03.228Z,99671.41
2023-03-18T03:52:59.569Z,99680.53
2023-03-18T03:57:56.493Z,99691.81
2023-03-18T04:02:54.121Z,99694.97
2023-03-18T04:07:51.448Z,99697.13
2023-03-18T04:12:48.687Z,99694.13
2023-03-18T04:17:45.759Z,99690.53
2023-03-18T04:22:42.097Z,99700.69
2023-03-18T04:27:39.155Z,99713.88
2023-03-18T04:32:35.722Z,99739.38
2023-03-18T04:37:37.024Z,99749.19
2023-03-18T04:42:33.848Z,99747.78
2023-03-18T04:47:30.753Z,99754.50
2023-03-18T04:52:27.181Z,99757.97
2023-03-18T04:57:23.508Z,99742.22
2023-03-18T05:02:19.897Z,99755.97
2023-03-18T05:07:16.519Z,99756.31
2023-03-18T05:12:14.895Z,99773.06
2023-03-18T05:17:15.711Z,99779.97
2023-03-18T05:22:13.671Z,99785.47
2023-03-18T05:27:10.826Z,99783.41
2023-03-18T05:32:08.313Z,99793.28
2023-03-18T05:37:07.024Z,99795.06
2023-03-18T05:42:04.733Z,99799.47
2023-03-18T05:47:01.702Z,99805.81
2023-03-18T05:51:58.059Z,99812.38
2023-03-18T05:56:54.753Z,99816.34
2023-03-18T06:01:52.783Z,99816.88
2023-03-18T06:06:49.624Z,99824.31
2023-03-18T06:11:46.201Z,99834.59
2023-03-18T06:16:43.385Z,99842.81
2023-03-18T06:21:40.252Z,99843.44
2023-03-18T06:26:36.569Z,99842.97
2023-03-18T06:31:33.798Z,99851.44
2023-03-18T06:36:30.696Z,99852.06
2023-03-18T06:41:28.044Z,99856.91
2023-03-18T06:46:24.414Z,99868.00
2023-03-18T06:51:20.943Z,99863.78
2023-03-18T06:56:17.271Z,99867.03
2023-03-18T07:01:13.958Z,99865.03
2023-03-18T07:06:10.375Z,99863.19
2023-03-18T07:11:07.217Z,99864.91
2023-03-18T07:16:03.814Z,99861.44
2023-03-18T07:21:00.561Z,99857.88
2023-03-18T07:25:57.451Z,99855.03
2023-03-18T07:30:54.700Z,99853.69
2023-03-18T07:35:51.093Z,99854.84
2023-03-18T07:40:48.307Z,99854.88
2023-03-18T07:45:44.669Z,99851.09
2023-03-18T07:50:41.355Z,99842.50
2023-03-18T07:55:38.558Z,99845.06
2023-03-18T08:00:35.620Z,99843.72
2023-03-18T08:05:32.302Z,99840.13
2023-03-18T08:10:29.601Z,99848.56
2023-03-18T08:15:26.459Z,99844.06
2023-03-18T08:20:23.047Z,99853.63
2023-03-18T08:25:20.045Z,99854.19
2023-03-18T08:30:16.618Z,99858.13
2023-03-18T08:35:13.791Z,99853.09
2023-03-18T08:40:11.680Z,99859.53
2023-03-18T08:45:08.642Z,99856.41
2023-03-18T08:50:05.925Z,99860.38
2023-03-18T08:55:02.369Z,99869.03
2023-03-18T08:59:58.711Z,99864.69
2023-03-18T09:04:55.875Z,99868.34
2023-03-18T09:09:52.250Z,99872.56
2023-03-18T09:14:48.576Z,99872.16
2023-03-18T09:19:45.493Z,99888.03
2023-03-18T09:24:42.022Z,99885.31
2023-03-18T09:29:38.351Z,99879.41
2023-03-18T09:34:34.885Z,99875.78
2023-03-18T09:39:31.205Z,99893.78
2023-03-18T09:44:34.228Z,99889.56
2023-03-18T09:49:42.777Z,99892.81
2023-03-18T09:54:49.183Z,99892.31
2023-03-18T09:59:50.259Z,99895.97
2023-03-18T10:04:54.130Z,99904.06
2023-03-18T10:10:01.994Z,99911.38
2023-03-18T10:15:04.321Z,99924.00
2023-03-18T10:20:04.866Z,99921.78
2023-03-18T10:25:22.679Z,99924.56
2023-03-18T10:30:43.730Z,99926.41
2023-03-18T10:35:54.815Z,99934.94
2023-03-18T10:40:51.521Z,99930.16
2023-03-18T10:45:52.525Z,99936.94
2023-03-18T10:51:12.569Z,99929.81
2023-03-18T10:56:13.422Z,99929.25
2023-03-18T11:01:17.110Z,99929.25
2023-03-18T11:06:31.581Z,99935.91
2023-03-18T11:11:34.511Z,99933.31
2023-03-18T11:16:46.647Z,99929.47
2023-03-18T11:21:43.095Z,99932.91
2023-03-18T11:26:53.964Z,99921.34
2023-03-18T11:32:00.282Z,99924.19
2023-03-18T11:36:58.958Z,99928.25
2023-03-18T11:41:55.407Z,99924.50
2023-03-18T11:47:14.806Z,99919.47
2023-03-18T11:52:27.053Z,99925.91
2023-03-18T11:57:47.796Z,99920.00
2023-03-18T12:03:13.013Z,99916.00
2023-03-18T12:08:41.958Z,99916.59
2023-03-18T12:13:39.411Z,99912.63
2023-03-18T12:19:05.443Z,99911.66
2023-03-18T12:24:07.859Z,99904.91
2023-03-18T12:29:38.596Z,99908.44
2023-03-18T12:34:47.103Z,99899.22
2023-03-18T12:40:01.284Z,99904.03
2023-03-18T12:45:01.865Z,99898.84
2023-03-18T12:50:02.250Z,99890.28
2023-03-18T12:55:34.718Z,99886.44
2023-03-18T13:00:53.050Z,99877.28
2023-03-18T13:05:56.920Z,99876.72
2023-03-18T13:11:26.824Z,99880.03
2023-03-18T13:16:25.248Z,99889.00
2023-03-18T13:21:25.594Z,99888.19
2023-03-18T13:26:53.055Z,99893.00
2023-03-18T13:32:01.943Z,99893.00
2023-03-18T13:37:36.051Z,99883.69
2023-03-18T13:42:36.390Z,99883.59
2023-03-18T13:47:37.905Z,99880.84
2023-03-18T13:52:43.935Z,99885.41
2023-03-18T13:57:54.683Z,99890.50
2023-03-18T14:03:30.577Z,99890.47
2023-03-18T14:08:39.295Z,99887.72
2023-03-18T14:13:36.084Z,99888.03
2023-03-18T14:18:36.502Z,99883.59
2023-03-18T14:23:44.327Z,99886.94
2023-03-18T14:28:45.506Z,99883.13
2023-03-18T14:34:03.241Z,99882.41
2023-03-18T14:39:03.586Z,99872.97
2023-03-18T14:44:20.755Z,99864.28
2023-03-18T14:49:35.512Z,99851.56
2023-03-18T14:54:42.314Z,99853.31
2023-03-18T14:59:38.680Z,99836.69
2023-03-18T15:04:36.310Z,99836.78
2023-03-18T15:09:35.356Z,99825.31
2023-03-18T15:14:34.314Z,99833.78
2023-03-18T15:19:32.442Z,99819.16
2023-03-18T15:24:29.150Z,99816.72
2023-03-18T15:29:28.653Z,99808.00
2023-03-18T15:34:30.460Z,99808.00
2023-03-18T15:39:40.033Z,99810.38
2023-03-18T15:44:39.230Z,99804.47
2023-03-18T15:49:49.939Z,99812.19
2023-03-18T15:54:48.206Z,99820.59
2023-03-18T15:59:44.585Z,99818.66
2023-03-18T16:04:44.084Z,99824.72
2023-03-18T16:09:40.716Z,99822.22
2023-03-18T16:14:44.049Z,99813.19
2023-03-18T16:19:40.634Z,99816.72
2023-03-18T16:24:37.119Z,99815.66
2023-03-18T16:29:36.888Z,99812.97
2023-03-18T16:34:33.417Z,99810.00
2023-03-18T16:39:35.040Z,99810.97
2023-03-18T16:44:34.630Z,99807.25
2023-03-18T16:49:33.542Z,99806.03
2023-03-18T16:54:32.936Z,99805.13
2023-03-18T16:59:32.479Z,99818.09
2023-03-18T17:04:32.909Z,99811.66
2023-03-18T17:09:29.334Z,99815.94
2023-03-18T17:14:36.009Z,99819.56
2023-03-18T17:19:32.480Z,99825.56
2023-03-18T17:24:28.866Z,99835.41
2023-03-18T17:29:27.560Z,99842.59
2023-03-18T17:34:23.970Z,99863.50
2023-03-18T17:39:20.642Z,99892.25
2023-03-18T17:44:29.991Z,99914.19
2023-03-18T17:49:27.855Z,99908.47
2023-03-18T17:54:25.517Z,99919.59
2023-03-18T17:59:22.132Z,99928.16
2023-03-18T18:04:24.897Z,99933.03
2023-03-18T18:09:21.727Z,99939.75
2023-03-18T18:14:25.342Z,99939.78
2023-03-18T18:19:22.828Z,99943.84
2023-03-18T18:24:31.516Z,99939.50
2023-03-18T18:29:33.243Z,99951.69
2023-03-18T18:34:31.348Z,99936.97
2023-03-18T18:39:27.827Z,99946.22
2023-03-18T18:44:24.286Z,99943.97
2023-03-18T18:49:24.237Z,99943.44
2023-03-18T18:54:22.648Z,99947.75
2023-03-18T18:59:27.674Z,99952.69
2023-03-18T19:04:24.807Z,99947.75
2023-03-18T19:09:24.411Z,99954.50
2023-03-18T19:14:24.414Z,99951.66
2023-03-18T19:19:25.368Z,99951.38
2023-03-18T19:24:30.899Z,99954.84
2023-03-18T19:29:28.057Z,99956.66
2023-03-18T19:34:24.930Z,99951.44
2023-03-18T19:39:22.462Z,99948.03
2023-03-18T19:44:25.056Z,99954.72
2023-03-18T19:49:26.975Z,99957.47
2023-03-18T19:54:31.703Z,99961.97
2023-03-18T19:59:37.308Z,99952.81
2023-03-18T20:04:35.872Z,99967.22
2023-03-18T20:09:32.272Z,99970.63
2023-03-18T20:14:31.279Z,99973.97
2023-03-18T20:19:27.647Z,99978.19
2023-03-18T20:24:29.363Z,99977.72
2023-03-18T20:29:26.196Z,99978.75
2023-03-18T20:34:23.032Z,99972.25
2023-03-18T20:39:21.542Z,99982.41
2023-03-18T20:44:18.069Z,99970.09
2023-03-18T20:49:14.784Z,99974.19
2023-03-18T20:54:20.485Z,99983.28
2023-03-18T20:59:16.875Z,99983.44
2023-03-18T21:04:14.088Z,99999.94
2023-03-18T21:09:12.272Z,99995.25
2023-03-18T21:14:14.565Z,100007.41
2023-03-18T21:19:11.177Z,100017.56
2023-03-18T21:24:27.687Z,100009.63
2023-03-18T21:29:24.095Z,100010.81
2023-03-18T21:34:20.990Z,100010.09
2023-03-18T21:39:17.387Z,100009.63
2023-03-18T21:44:13.786Z,100003.56
2023-03-18T21:49:10.126Z,100008.72
2023-03-18T21:54:16.604Z,100014.88
2023-03-18T21:59:12.991Z,100023.19
2023-03-18T22:04:09.386Z,100031.72
2023-03-18T22:09:05.843Z,100033.72
2023-03-18T22:14:02.529Z,100038.06
2023-03-18T22:18:58.915Z,100033.44
2023-03-18T22:23:58.263Z,100036.06
2023-03-18T22:28:55.356Z,100036.50
2023-03-18T22:33:51.789Z,100037.56
2023-03-18T22:38:48.318Z,100037.88
2023-03-18T22:43:45.829Z,100039.84
2023-03-18T22:48:43.261Z,100037.19
2023-03-18T22:53:43.658Z,100032.97
2023-03-18T22:58:40.219Z,100041.25
2023-03-18T23:03:40.345Z,100031.03
2023-03-18T23:08:37.421Z,100026.03
2023-03-18T23:13:37.436Z,100028.81
2023-03-18T23:18:33.822Z,100024.13
2023-03-18T23:23:30.378Z,100034.38
2023-03-18T23:28:27.265Z,100037.84
2023-03-18T23:33:23.715Z,100034.56
2023-03-18T23:38:20.194Z,100041.66
2023-03-18T23:43:16.606Z,100044.88
2023-03-18T23:48:13.200Z,100043.94
2023-03-18T23:53:09.623Z,100050.13
2023-03-18T23:58:06.268Z,100053.06
